sensor_id;sensor_type;location;lat;lon;timestamp;pressure;altitude;pressure_sealevel;temperature;humidity
56630;BME280;42502;40.732;-74.254;2023-05-12T00:01:11;100767.34;;;29.21;33.42
56630;BME280;42502;40.732;-74.254;2023-05-12T00:03:15;100766.50;;;29.21;33.40
56630;BME280;42502;40.732;-74.254;2023-05-12T00:05:16;100760.03;;;29.20;33.67
56630;BME280;42502;40.732;-74.254;2023-05-12T00:07:16;100772.19;;;29.21;33.18
56630;BME280;42502;40.732;-74.254;2023-05-12T00:09:20;100768.56;;;29.20;33.22
56630;BME280;42502;40.732;-74.254;2023-05-12T00:11:21;100777.09;;;29.20;33.30
56630;BME280;42502;40.732;-74.254;2023-05-12T00:13:22;100779.94;;;29.20;33.57
56630;BME280;42502;40.732;-74.254;2023-05-12T00:15:23;100776.25;;;29.20;33.29
56630;BME280;42502;40.732;-74.254;2023-05-12T00:17:24;100779.94;;;29.20;33.16
56630;BME280;42502;40.732;-74.254;2023-05-12T00:19:27;100781.13;;;29.19;33.28
56630;BME280;42502;40.732;-74.254;2023-05-12T00:21:28;100788.03;;;29.18;33.21
56630;BME280;42502;40.732;-74.254;2023-05-12T00:23:28;100789.66;;;29.19;33.23
56630;BME280;42502;40.732;-74.254;2023-05-12T00:25:29;100785.22;;;29.18;33.70
56630;BME280;42502;40.732;-74.254;2023-05-12T00:27:30;100780.72;;;29.17;33.42
56630;BME280;42502;40.732;-74.254;2023-05-12T00:29:33;100787.22;;;29.18;33.23
56630;BME280;42502;40.732;-74.254;2023-05-12T00:31:33;100787.22;;;29.18;33.33
56630;BME280;42502;40.732;-74.254;2023-05-12T00:33:34;100794.94;;;29.17;33.16
56630;BME280;42502;40.732;-74.254;2023-05-12T00:35:35;100799.84;;;29.17;33.46
56630;BME280;42502;40.732;-74.254;2023-05-12T00:37:36;100797.00;;;29.17;33.09
56630;BME280;42502;40.732;-74.254;2023-05-12T00:39:37;100794.16;;;29.17;33.36
56630;BME280;42502;40.732;-74.254;2023-05-12T00:41:38;100798.63;;;29.14;33.50
56630;BME280;42502;40.732;-74.254;2023-05-12T00:43:39;100802.25;;;29.15;33.17
56630;BME280;42502;40.732;-74.254;2023-05-12T00:45:42;100802.25;;;29.15;33.51
56630;BME280;42502;40.732;-74.254;2023-05-12T00:47:44;100801.47;;;29.14;33.20
56630;BME280;42502;40.732;-74.254;2023-05-12T00:49:48;100804.31;;;29.14;33.63
56630;BME280;42502;40.732;-74.254;2023-05-12T00:51:49;100798.19;;;29.12;33.65
56630;BME280;42502;40.732;-74.254;2023-05-12T00:53:50;100806.34;;;29.14;33.33
56630;BME280;42502;40.732;-74.254;2023-05-12T00:55:51;100803.88;;;29.12;33.63
56630;BME280;42502;40.732;-74.254;2023-05-12T00:57:53;100807.56;;;29.13;33.25
56630;BME280;42502;40.732;-74.254;2023-05-12T00:59:54;100808.78;;;29.12;33.13
56630;BME280;42502;40.732;-74.254;2023-05-12T01:01:56;100810.41;;;29.09;33.59
56630;BME280;42502;40.732;-74.254;2023-05-12T01:03:56;100808.38;;;29.10;33.19
56630;BME280;42502;40.732;-74.254;2023-05-12T01:06:21;100813.66;;;29.07;33.63
56630;BME280;42502;40.732;-74.254;2023-05-12T01:08:25;100812.03;;;29.10;33.57
56630;BME280;42502;40.732;-74.254;2023-05-12T01:10:27;100813.25;;;29.09;33.20
56630;BME280;42502;40.732;-74.254;2023-05-12T01:12:27;100816.91;;;29.10;33.19
56630;BME280;42502;40.732;-74.254;2023-05-12T01:14:28;100815.69;;;29.07;33.28
56630;BME280;42502;40.732;-74.254;2023-05-12T01:16:34;100814.50;;;29.08;33.36
56630;BME280;42502;40.732;-74.254;2023-05-12T01:18:40;100817.34;;;29.08;33.13
56630;BME280;42502;40.732;-74.254;2023-05-12T01:20:42;100820.59;;;29.06;33.13
56630;BME280;42502;40.732;-74.254;2023-05-12T01:22:45;100820.59;;;29.06;33.09
56630;BME280;42502;40.732;-74.254;2023-05-12T01:24:54;100820.16;;;29.04;33.19
56630;BME280;42502;40.732;-74.254;2023-05-12T01:26:55;100826.69;;;29.05;33.28
56630;BME280;42502;40.732;-74.254;2023-05-12T01:28:56;100827.50;;;29.05;33.21
56630;BME280;42502;40.732;-74.254;2023-05-12T01:30:58;100821.41;;;29.03;33.56
56630;BME280;42502;40.732;-74.254;2023-05-12T01:32:59;100824.25;;;29.03;33.09
56630;BME280;42502;40.732;-74.254;2023-05-12T01:35:00;100829.09;;;29.03;32.98
56630;BME280;42502;40.732;-74.254;2023-05-12T01:37:00;100826.69;;;29.01;33.10
56630;BME280;42502;40.732;-74.254;2023-05-12T01:39:01;100826.69;;;29.01;33.39
56630;BME280;42502;40.732;-74.254;2023-05-12T01:41:02;100825.06;;;29.00;33.19
56630;BME280;42502;40.732;-74.254;2023-05-12T01:43:03;100827.91;;;29.00;33.12
56630;BME280;42502;40.732;-74.254;2023-05-12T01:45:04;100831.56;;;29.01;33.41
56630;BME280;42502;40.732;-74.254;2023-05-12T01:47:05;100829.13;;;28.99;32.97
56630;BME280;42502;40.732;-74.254;2023-05-12T01:49:09;100829.94;;;29.00;33.08
56630;BME280;42502;40.732;-74.254;2023-05-12T01:51:09;100829.13;;;28.99;33.38
56630;BME280;42502;40.732;-74.254;2023-05-12T01:53:12;100826.69;;;28.98;33.27
56630;BME280;42502;40.732;-74.254;2023-05-12T01:55:13;100827.09;;;28.96;33.00
56630;BME280;42502;40.732;-74.254;2023-05-12T01:57:14;100828.72;;;28.94;33.06
56630;BME280;42502;40.732;-74.254;2023-05-12T01:59:15;100837.28;;;28.97;32.98
56630;BME280;42502;40.732;-74.254;2023-05-12T02:01:16;100838.47;;;28.96;32.95
56630;BME280;42502;40.732;-74.254;2023-05-12T02:03:16;100844.16;;;28.96;33.42
56630;BME280;42502;40.732;-74.254;2023-05-12T02:05:18;100844.56;;;28.95;33.08
56630;BME280;42502;40.732;-74.254;2023-05-12T02:07:19;100851.91;;;28.96;33.38
56630;BME280;42502;40.732;-74.254;2023-05-12T02:09:20;100853.50;;;28.93;32.89
56630;BME280;42502;40.732;-74.254;2023-05-12T02:11:25;100851.09;;;28.92;33.35
56630;BME280;42502;40.732;-74.254;2023-05-12T02:13:26;100848.25;;;28.92;33.17
56630;BME280;42502;40.732;-74.254;2023-05-12T02:15:28;100852.28;;;28.91;32.74
56630;BME280;42502;40.732;-74.254;2023-05-12T02:17:29;100850.69;;;28.89;32.87
56630;BME280;42502;40.732;-74.254;2023-05-12T02:19:30;100847.00;;;28.89;33.23
56630;BME280;42502;40.732;-74.254;2023-05-12T02:21:31;100843.38;;;28.88;32.84
56630;BME280;42502;40.732;-74.254;2023-05-12T02:23:32;100833.22;;;28.84;33.08
56630;BME280;42502;40.732;-74.254;2023-05-12T02:25:33;100840.94;;;28.87;33.18
56630;BME280;42502;40.732;-74.254;2023-05-12T02:27:33;100844.59;;;28.87;33.15
56630;BME280;42502;40.732;-74.254;2023-05-12T02:29:34;100852.31;;;28.87;33.11
56630;BME280;42502;40.732;-74.254;2023-05-12T02:31:35;100831.59;;;28.79;32.56
56630;BME280;42502;40.732;-74.254;2023-05-12T02:33:36;100851.09;;;28.84;33.01
56630;BME280;42502;40.732;-74.254;2023-05-12T02:35:37;100855.97;;;28.84;33.10
56630;BME280;42502;40.732;-74.254;2023-05-12T02:37:38;100854.34;;;28.83;32.60
56630;BME280;42502;40.732;-74.254;2023-05-12T02:39:39;100857.59;;;28.81;32.74
56630;BME280;42502;40.732;-74.254;2023-05-12T02:41:40;100858.38;;;28.82;33.01
56630;BME280;42502;40.732;-74.254;2023-05-12T02:43:40;100860.44;;;28.81;33.11
56630;BME280;42502;40.732;-74.254;2023-05-12T02:45:41;100857.59;;;28.81;32.67
56630;BME280;42502;40.732;-74.254;2023-05-12T02:47:42;100861.63;;;28.80;32.63
56630;BME280;42502;40.732;-74.254;2023-05-12T02:49:43;100848.66;;;28.79;32.74
56630;BME280;42502;40.732;-74.254;2023-05-12T02:51:43;100849.88;;;28.78;32.73
56630;BME280;42502;40.732;-74.254;2023-05-12T02:53:44;100842.56;;;28.77;32.97
56630;BME280;42502;40.732;-74.254;2023-05-12T02:55:45;100853.94;;;28.77;32.94
56630;BME280;42502;40.732;-74.254;2023-05-12T02:57:46;100853.53;;;28.75;32.83
56630;BME280;42502;40.732;-74.254;2023-05-12T02:59:47;100855.56;;;28.75;32.45
56630;BME280;42502;40.732;-74.254;2023-05-12T03:01:48;100860.44;;;28.74;32.92
56630;BME280;42502;40.732;-74.254;2023-05-12T03:03:49;100862.47;;;28.74;32.39
56630;BME280;42502;40.732;-74.254;2023-05-12T03:05:50;100852.72;;;28.71;32.92
56630;BME280;42502;40.732;-74.254;2023-05-12T03:07:52;100862.06;;;28.71;32.95
56630;BME280;42502;40.732;-74.254;2023-05-12T03:09:52;100869.78;;;28.71;32.45
56630;BME280;42502;40.732;-74.254;2023-05-12T03:11:53;100862.47;;;28.70;32.67
56630;BME280;42502;40.732;-74.254;2023-05-12T03:13:54;100861.66;;;28.69;32.57
56630;BME280;42502;40.732;-74.254;2023-05-12T03:15:55;100858.00;;;28.69;32.71
56630;BME280;42502;40.732;-74.254;2023-05-12T03:18:00;100855.59;;;28.64;32.43
56630;BME280;42502;40.732;-74.254;2023-05-12T03:20:02;100857.22;;;28.68;32.74
56630;BME280;42502;40.732;-74.254;2023-05-12T03:22:03;100855.97;;;28.66;32.78
56630;BME280;42502;40.732;-74.254;2023-05-12T03:24:06;100866.53;;;28.65;32.66
56630;BME280;42502;40.732;-74.254;2023-05-12T03:26:07;100864.91;;;28.64;32.67
56630;BME280;42502;40.732;-74.254;2023-05-12T03:28:08;100861.28;;;28.64;32.42
56630;BME280;42502;40.732;-74.254;2023-05-12T03:30:09;100866.13;;;28.63;32.60
56630;BME280;42502;40.732;-74.254;2023-05-12T03:32:11;100856.00;;;28.62;32.27
56630;BME280;42502;40.732;-74.254;2023-05-12T03:34:12;100863.69;;;28.62;32.14
56630;BME280;42502;40.732;-74.254;2023-05-12T03:36:13;100864.09;;;28.60;32.24
56630;BME280;42502;40.732;-74.254;2023-05-12T03:38:14;100864.09;;;28.60;32.55
56630;BME280;42502;40.732;-74.254;2023-05-12T03:40:15;100868.97;;;28.60;32.38
56630;BME280;42502;40.732;-74.254;2023-05-12T03:42:17;100870.16;;;28.59;32.11
56630;BME280;42502;40.732;-74.254;2023-05-12T03:44:18;100860.81;;;28.58;32.32
56630;BME280;42502;40.732;-74.254;2023-05-12T03:46:19;100870.56;;;28.57;32.33
56630;BME280;42502;40.732;-74.254;2023-05-12T03:48:20;100868.94;;;28.56;32.53
56630;BME280;42502;40.732;-74.254;2023-05-12T03:50:21;100868.13;;;28.56;32.60
56630;BME280;42502;40.732;-74.254;2023-05-12T03:52:24;100866.94;;;28.53;32.57
56630;BME280;42502;40.732;-74.254;2023-05-12T03:54:25;100868.53;;;28.54;32.01
56630;BME280;42502;40.732;-74.254;2023-05-12T03:56:26;100868.13;;;28.52;32.28
56630;BME280;42502;40.732;-74.254;2023-05-12T03:58:28;100870.97;;;28.52;32.01
56630;BME280;42502;40.732;-74.254;2023-05-12T04:00:28;100873.81;;;28.52;32.35
56630;BME280;42502;40.732;-74.254;2023-05-12T04:02:30;100874.22;;;28.50;32.58
56630;BME280;42502;40.732;-74.254;2023-05-12T04:04:30;100870.53;;;28.50;32.39
56630;BME280;42502;40.732;-74.254;2023-05-12T04:06:31;100866.50;;;28.47;32.18
56630;BME280;42502;40.732;-74.254;2023-05-12T04:08:32;100866.50;;;28.47;32.43
56630;BME280;42502;40.732;-74.254;2023-05-12T04:10:42;100867.72;;;28.46;32.14
56630;BME280;42502;40.732;-74.254;2023-05-12T04:12:43;100874.19;;;28.47;32.51
56630;BME280;42502;40.732;-74.254;2023-05-12T04:14:43;100877.44;;;28.45;32.15
56630;BME280;42502;40.732;-74.254;2023-05-12T04:16:44;100879.50;;;28.45;32.04
56630;BME280;42502;40.732;-74.254;2023-05-12T04:18:45;100881.53;;;28.44;32.23
56630;BME280;42502;40.732;-74.254;2023-05-12T04:20:46;100881.94;;;28.43;32.26
56630;BME280;42502;40.732;-74.254;2023-05-12T04:22:47;100886.78;;;28.42;32.32
56630;BME280;42502;40.732;-74.254;2023-05-12T04:24:48;100882.34;;;28.41;32.24
56630;BME280;42502;40.732;-74.254;2023-05-12T04:26:48;100877.06;;;28.40;32.10
56630;BME280;42502;40.732;-74.254;2023-05-12T04:28:49;100879.47;;;28.38;32.31
56630;BME280;42502;40.732;-74.254;2023-05-12T04:30:50;100873.78;;;28.38;31.98
56630;BME280;42502;40.732;-74.254;2023-05-12T04:32:51;100889.22;;;28.36;32.07
56630;BME280;42502;40.732;-74.254;2023-05-12T04:34:52;100881.13;;;28.35;32.26
56630;BME280;42502;40.732;-74.254;2023-05-12T04:36:55;100882.72;;;28.36;32.20
56630;BME280;42502;40.732;-74.254;2023-05-12T04:38:56;100872.16;;;28.33;32.30
56630;BME280;42502;40.732;-74.254;2023-05-12T04:40:58;100876.25;;;28.32;32.00
56630;BME280;42502;40.732;-74.254;2023-05-12T04:42:59;100870.56;;;28.32;32.10
56630;BME280;42502;40.732;-74.254;2023-05-12T04:45:00;100876.25;;;28.32;31.75
56630;BME280;42502;40.732;-74.254;2023-05-12T04:47:00;100872.56;;;28.31;32.23
56630;BME280;42502;40.732;-74.254;2023-05-12T04:49:01;100870.97;;;28.30;31.94
56630;BME280;42502;40.732;-74.254;2023-05-12T04:51:02;100869.31;;;28.29;32.15
56630;BME280;42502;40.732;-74.254;2023-05-12T04:53:03;100862.84;;;28.29;31.89
56630;BME280;42502;40.732;-74.254;2023-05-12T04:55:05;100866.09;;;28.27;31.83
56630;BME280;42502;40.732;-74.254;2023-05-12T04:57:07;100866.50;;;28.26;31.84
56630;BME280;42502;40.732;-74.254;2023-05-12T04:59:07;100862.41;;;28.23;31.68
56630;BME280;42502;40.732;-74.254;2023-05-12T05:01:08;100870.53;;;28.25;31.78
56630;BME280;42502;40.732;-74.254;2023-05-12T05:03:11;100866.06;;;28.24;31.66
56630;BME280;42502;40.732;-74.254;2023-05-12T05:05:12;100861.63;;;28.23;31.75
56630;BME280;42502;40.732;-74.254;2023-05-12T05:07:16;100866.47;;;28.22;31.79
56630;BME280;42502;40.732;-74.254;2023-05-12T05:09:19;100865.66;;;28.22;32.02
56630;BME280;42502;40.732;-74.254;2023-05-12T05:11:21;100869.72;;;28.21;31.81
56630;BME280;42502;40.732;-74.254;2023-05-12T05:13:21;100869.72;;;28.21;31.91
56630;BME280;42502;40.732;-74.254;2023-05-12T05:15:22;100874.59;;;28.20;31.82
56630;BME280;42502;40.732;-74.254;2023-05-12T05:17:23;100879.44;;;28.19;32.11
56630;BME280;42502;40.732;-74.254;2023-05-12T05:19:24;100870.53;;;28.17;32.14
56630;BME280;42502;40.732;-74.254;2023-05-12T05:21:25;100868.88;;;28.16;31.99
56630;BME280;42502;40.732;-74.254;2023-05-12T05:23:26;100865.25;;;28.16;32.09
56630;BME280;42502;40.732;-74.254;2023-05-12T05:25:27;100861.59;;;28.15;31.64
56630;BME280;42502;40.732;-74.254;2023-05-12T05:27:28;100858.75;;;28.15;32.04
56630;BME280;42502;40.732;-74.254;2023-05-12T05:29:29;100851.44;;;28.14;32.15
56630;BME280;42502;40.732;-74.254;2023-05-12T05:31:29;100855.50;;;28.13;32.11
56630;BME280;42502;40.732;-74.254;2023-05-12T05:33:30;100851.03;;;28.12;31.76
56630;BME280;42502;40.732;-74.254;2023-05-12T05:35:31;100847.78;;;28.10;31.77
56630;BME280;42502;40.732;-74.254;2023-05-12T05:37:32;100845.75;;;28.07;31.87
56630;BME280;42502;40.732;-74.254;2023-05-12T05:39:33;100842.50;;;28.09;31.97
56630;BME280;42502;40.732;-74.254;2023-05-12T05:41:34;100839.66;;;28.09;31.99
56630;BME280;42502;40.732;-74.254;2023-05-12T05:43:35;100838.84;;;28.08;31.58
56630;BME280;42502;40.732;-74.254;2023-05-12T05:45:35;100839.25;;;28.07;31.90
56630;BME280;42502;40.732;-74.254;2023-05-12T05:47:36;100842.91;;;28.07;32.13
56630;BME280;42502;40.732;-74.254;2023-05-12T05:49:37;100833.59;;;28.03;31.73
56630;BME280;42502;40.732;-74.254;2023-05-12T05:51:38;100840.88;;;28.04;31.63
56630;BME280;42502;40.732;-74.254;2023-05-12T05:53:38;100837.63;;;28.02;31.67
56630;BME280;42502;40.732;-74.254;2023-05-12T05:55:39;100836.84;;;28.02;31.67
56630;BME280;42502;40.732;-74.254;2023-05-12T05:57:40;100842.91;;;28.00;31.97
56630;BME280;42502;40.732;-74.254;2023-05-12T05:59:41;100840.06;;;28.00;31.48
56630;BME280;42502;40.732;-74.254;2023-05-12T06:01:43;100835.56;;;27.95;31.95
56630;BME280;42502;40.732;-74.254;2023-05-12T06:03:44;100836.81;;;27.98;31.51
56630;BME280;42502;40.732;-74.254;2023-05-12T06:05:45;100839.63;;;27.98;31.85
56630;BME280;42502;40.732;-74.254;2023-05-12T06:07:46;100835.19;;;27.97;31.67
56630;BME280;42502;40.732;-74.254;2023-05-12T06:09:47;100836.41;;;27.96;31.64
56630;BME280;42502;40.732;-74.254;2023-05-12T06:11:48;100837.56;;;27.95;31.38
56630;BME280;42502;40.732;-74.254;2023-05-12T06:13:49;100833.13;;;27.94;31.84
56630;BME280;42502;40.732;-74.254;2023-05-12T06:15:50;100828.66;;;27.93;31.95
56630;BME280;42502;40.732;-74.254;2023-05-12T06:17:50;100832.69;;;27.92;31.64
56630;BME280;42502;40.732;-74.254;2023-05-12T06:19:51;100831.09;;;27.91;31.45
56630;BME280;42502;40.732;-74.254;2023-05-12T06:21:52;100824.59;;;27.90;31.71
56630;BME280;42502;40.732;-74.254;2023-05-12T06:23:53;100825.78;;;27.89;31.74
56630;BME280;42502;40.732;-74.254;2023-05-12T06:25:55;100825.00;;;27.89;31.52
56630;BME280;42502;40.732;-74.254;2023-05-12T06:27:56;100819.72;;;27.87;31.41
56630;BME280;42502;40.732;-74.254;2023-05-12T06:29:57;100809.97;;;27.84;31.61
56630;BME280;42502;40.732;-74.254;2023-05-12T06:31:57;100817.28;;;27.86;31.55
56630;BME280;42502;40.732;-74.254;2023-05-12T06:33:58;100813.63;;;27.85;31.77
56630;BME280;42502;40.732;-74.254;2023-05-12T06:35:59;100814.84;;;27.84;31.69
56630;BME280;42502;40.732;-74.254;2023-05-12T06:38:00;100814.84;;;27.84;31.76
56630;BME280;42502;40.732;-74.254;2023-05-12T06:40:01;100821.72;;;27.83;31.74
56630;BME280;42502;40.732;-74.254;2023-05-12T06:42:02;100824.16;;;27.81;31.56
56630;BME280;42502;40.732;-74.254;2023-05-12T06:44:03;100822.13;;;27.81;31.65
56630;BME280;42502;40.732;-74.254;2023-05-12T06:46:05;100821.72;;;27.79;31.25
56630;BME280;42502;40.732;-74.254;2023-05-12T06:48:07;100830.63;;;27.78;31.47
56630;BME280;42502;40.732;-74.254;2023-05-12T06:50:08;100830.63;;;27.78;31.33
56630;BME280;42502;40.732;-74.254;2023-05-12T06:52:09;100829.00;;;27.77;31.62
56630;BME280;42502;40.732;-74.254;2023-05-12T06:54:10;100834.69;;;27.77;31.26
56630;BME280;42502;40.732;-74.254;2023-05-12T06:56:11;100831.44;;;27.75;31.46
56630;BME280;42502;40.732;-74.254;2023-05-12T06:58:16;100832.25;;;27.75;31.63
56630;BME280;42502;40.732;-74.254;2023-05-12T07:00:18;100828.22;;;27.73;31.28
56630;BME280;42502;40.732;-74.254;2023-05-12T07:02:19;100829.00;;;27.73;31.53
56630;BME280;42502;40.732;-74.254;2023-05-12T07:04:20;100827.38;;;27.72;31.15
56630;BME280;42502;40.732;-74.254;2023-05-12T07:06:22;100830.63;;;27.71;31.42
56630;BME280;42502;40.732;-74.254;2023-05-12T07:08:22;100822.50;;;27.69;31.63
56630;BME280;42502;40.732;-74.254;2023-05-12T07:10:23;100824.13;;;27.70;31.59
56630;BME280;42502;40.732;-74.254;2023-05-12T07:12:24;100823.72;;;27.68;31.61
56630;BME280;42502;40.732;-74.254;2023-05-12T07:14:25;100820.06;;;27.68;31.37
56630;BME280;42502;40.732;-74.254;2023-05-12T07:16:26;100824.94;;;27.67;31.46
56630;BME280;42502;40.732;-74.254;2023-05-12T07:18:27;100826.13;;;27.66;31.60
56630;BME280;42502;40.732;-74.254;2023-05-12T07:20:27;100823.31;;;27.66;31.44
56630;BME280;42502;40.732;-74.254;2023-05-12T07:22:28;100824.53;;;27.65;31.25
56630;BME280;42502;40.732;-74.254;2023-05-12T07:24:31;100827.38;;;27.65;31.29
56630;BME280;42502;40.732;-74.254;2023-05-12T07:26:35;100828.56;;;27.64;31.30
56630;BME280;42502;40.732;-74.254;2023-05-12T07:28:36;100831.81;;;27.62;30.98
56630;BME280;42502;40.732;-74.254;2023-05-12T07:30:40;100828.97;;;27.62;31.05
56630;BME280;42502;40.732;-74.254;2023-05-12T07:32:41;100836.69;;;27.62;30.98
56630;BME280;42502;40.732;-74.254;2023-05-12T07:34:42;100840.72;;;27.61;31.03
56630;BME280;42502;40.732;-74.254;2023-05-12T07:36:43;100836.25;;;27.60;31.04
56630;BME280;42502;40.732;-74.254;2023-05-12T07:38:44;100846.81;;;27.59;30.91
56630;BME280;42502;40.732;-74.254;2023-05-12T07:40:45;100839.50;;;27.58;31.34
56630;BME280;42502;40.732;-74.254;2023-05-12T07:42:46;100835.84;;;27.58;30.88
56630;BME280;42502;40.732;-74.254;2023-05-12T07:44:47;100830.56;;;27.56;31.20
56630;BME280;42502;40.732;-74.254;2023-05-12T07:46:48;100823.28;;;27.55;30.85
56630;BME280;42502;40.732;-74.254;2023-05-12T07:48:52;100829.75;;;27.56;31.25
56630;BME280;42502;40.732;-74.254;2023-05-12T07:50:52;100838.66;;;27.54;31.04
56630;BME280;42502;40.732;-74.254;2023-05-12T07:52:53;100836.22;;;27.53;30.99
56630;BME280;42502;40.732;-74.254;2023-05-12T07:54:55;100833.38;;;27.53;30.95
56630;BME280;42502;40.732;-74.254;2023-05-12T07:56:57;100835.41;;;27.52;31.15
56630;BME280;42502;40.732;-74.254;2023-05-12T07:59:01;100838.66;;;27.51;30.95
56630;BME280;42502;40.732;-74.254;2023-05-12T08:01:02;100839.84;;;27.50;30.82
56630;BME280;42502;40.732;-74.254;2023-05-12T08:03:05;100841.09;;;27.48;31.05
56630;BME280;42502;40.732;-74.254;2023-05-12T08:05:10;100834.97;;;27.46;30.77
56630;BME280;42502;40.732;-74.254;2023-05-12T08:07:11;100840.25;;;27.48;30.96
56630;BME280;42502;40.732;-74.254;2023-05-12T08:09:12;100834.97;;;27.46;31.16
56630;BME280;42502;40.732;-74.254;2023-05-12T08:11:13;100824.03;;;27.45;30.91
56630;BME280;42502;40.732;-74.254;2023-05-12T08:13:14;100839.44;;;27.44;30.79
56630;BME280;42502;40.732;-74.254;2023-05-12T08:15:14;100834.16;;;27.42;31.13
56630;BME280;42502;40.732;-74.254;2023-05-12T08:17:15;100839.84;;;27.42;30.75
56630;BME280;42502;40.732;-74.254;2023-05-12T08:19:16;100832.53;;;27.41;30.71
56630;BME280;42502;40.732;-74.254;2023-05-12T08:21:19;100832.94;;;27.40;30.85
56630;BME280;42502;40.732;-74.254;2023-05-12T08:23:20;100830.50;;;27.38;30.74
56630;BME280;42502;40.732;-74.254;2023-05-12T08:25:21;100831.31;;;27.39;30.73
56630;BME280;42502;40.732;-74.254;2023-05-12T08:27:22;100827.66;;;27.38;31.09
56630;BME280;42502;40.732;-74.254;2023-05-12T08:29:23;100824.03;;;27.38;30.61
56630;BME280;42502;40.732;-74.254;2023-05-12T08:31:24;100823.59;;;27.36;31.19
56630;BME280;42502;40.732;-74.254;2023-05-12T08:33:25;100818.31;;;27.34;30.67
56630;BME280;42502;40.732;-74.254;2023-05-12T08:35:26;100819.94;;;27.35;31.19
56630;BME280;42502;40.732;-74.254;2023-05-12T08:37:27;100814.66;;;27.34;30.95
56630;BME280;42502;40.732;-74.254;2023-05-12T08:39:28;100810.19;;;27.33;31.08
56630;BME280;42502;40.732;-74.254;2023-05-12T08:41:41;100822.75;;;27.32;30.82
56630;BME280;42502;40.732;-74.254;2023-05-12T08:43:45;100817.47;;;27.30;30.90
56630;BME280;42502;40.732;-74.254;2023-05-12T08:45:49;100813.81;;;27.29;31.03
56630;BME280;42502;40.732;-74.254;2023-05-12T08:47:51;100810.97;;;27.29;30.99
56630;BME280;42502;40.732;-74.254;2023-05-12T08:50:01;100818.63;;;27.25;30.85
56630;BME280;42502;40.732;-74.254;2023-05-12T08:52:02;100821.06;;;27.27;30.85
56630;BME280;42502;40.732;-74.254;2023-05-12T08:54:06;100815.81;;;27.25;31.23
56630;BME280;42502;40.732;-74.254;2023-05-12T08:56:09;100823.50;;;27.25;30.96
56630;BME280;42502;40.732;-74.254;2023-05-12T08:58:11;100830.38;;;27.24;31.13
56630;BME280;42502;40.732;-74.254;2023-05-12T09:00:13;100843.75;;;27.23;30.65
56630;BME280;42502;40.732;-74.254;2023-05-12T09:02:16;100836.44;;;27.22;30.78
56630;BME280;42502;40.732;-74.254;2023-05-12T09:04:18;100835.66;;;27.22;30.81
56630;BME280;42502;40.732;-74.254;2023-05-12T09:06:19;100836.03;;;27.20;30.85
56630;BME280;42502;40.732;-74.254;2023-05-12T09:08:20;100833.59;;;27.19;30.67
56630;BME280;42502;40.732;-74.254;2023-05-12T09:10:21;100834.81;;;27.18;31.16
56630;BME280;42502;40.732;-74.254;2023-05-12T09:12:24;100837.63;;;27.18;30.75
56630;BME280;42502;40.732;-74.254;2023-05-12T09:14:28;100850.22;;;27.17;30.65
56630;BME280;42502;40.732;-74.254;2023-05-12T09:16:38;100852.63;;;27.15;30.68
56630;BME280;42502;40.732;-74.254;2023-05-12T09:18:56;100853.84;;;27.13;31.05
56630;BME280;42502;40.732;-74.254;2023-05-12T09:20:59;100861.13;;;27.15;31.01
56630;BME280;42502;40.732;-74.254;2023-05-12T09:23:12;100857.88;;;27.12;30.83
56630;BME280;42502;40.732;-74.254;2023-05-12T09:25:14;100857.06;;;27.12;30.89
56630;BME280;42502;40.732;-74.254;2023-05-12T09:27:23;100851.81;;;27.10;30.83
56630;BME280;42502;40.732;-74.254;2023-05-12T09:29:25;100860.31;;;27.10;30.59
56630;BME280;42502;40.732;-74.254;2023-05-12T09:31:26;100861.50;;;27.09;30.53
56630;BME280;42502;40.732;-74.254;2023-05-12T09:33:27;100865.53;;;27.08;30.54
56630;BME280;42502;40.732;-74.254;2023-05-12T09:35:28;100864.75;;;27.08;30.57
56630;BME280;42502;40.732;-74.254;2023-05-12T09:37:30;100872.44;;;27.07;30.87
56630;BME280;42502;40.732;-74.254;2023-05-12T09:39:32;100867.56;;;27.04;30.73
56630;BME280;42502;40.732;-74.254;2023-05-12T09:41:37;100865.13;;;27.03;30.53
56630;BME280;42502;40.732;-74.254;2023-05-12T09:43:47;100864.28;;;27.02;30.73
56630;BME280;42502;40.732;-74.254;2023-05-12T09:45:48;100869.97;;;27.02;30.57
56630;BME280;42502;40.732;-74.254;2023-05-12T09:47:50;100869.97;;;27.02;30.62
56630;BME280;42502;40.732;-74.254;2023-05-12T09:49:51;100872.38;;;27.00;30.80
56630;BME280;42502;40.732;-74.254;2023-05-12T09:51:54;100877.25;;;27.00;30.88
56630;BME280;42502;40.732;-74.254;2023-05-12T09:53:56;100876.41;;;26.99;30.82
56630;BME280;42502;40.732;-74.254;2023-05-12T09:55:57;100882.47;;;26.98;30.65
56630;BME280;42502;40.732;-74.254;2023-05-12T09:57:59;100880.88;;;26.97;30.71
56630;BME280;42502;40.732;-74.254;2023-05-12T10:00:02;100869.09;;;26.94;30.60
56630;BME280;42502;40.732;-74.254;2023-05-12T10:02:05;100876.78;;;26.94;30.91
56630;BME280;42502;40.732;-74.254;2023-05-12T10:04:08;100878.00;;;26.93;30.56
56630;BME280;42502;40.732;-74.254;2023-05-12T10:06:14;100882.88;;;26.92;30.98
56630;BME280;42502;40.732;-74.254;2023-05-12T10:08:30;100879.59;;;26.90;30.58
56630;BME280;42502;40.732;-74.254;2023-05-12T10:10:32;100877.91;;;26.82;30.88
56630;BME280;42502;40.732;-74.254;2023-05-12T10:12:34;100892.97;;;26.90;30.78
56630;BME280;42502;40.732;-74.254;2023-05-12T10:14:36;100891.69;;;26.84;30.77
56630;BME280;42502;40.732;-74.254;2023-05-12T10:16:37;100903.88;;;26.88;30.71
56630;BME280;42502;40.732;-74.254;2023-05-12T10:18:38;100902.25;;;26.87;30.79
56630;BME280;42502;40.732;-74.254;2023-05-12T10:20:45;100912.78;;;26.86;30.78